Pagrindinis puslapis
METAR-TAF:

METAR-TAF

Oro uostai :

Elsenborn

Bütgenbach, Belgija

platuma: 50-28N, ilguma: 006-11E, Aukštis: 564 m

Dabartinis oras

Ataskaita buvo paskelbta 24 minutes, ne 19:55 UTC
Vėjas 5 kt iš Rytų
Temperatūra 7°C
Drėgmė 70%
Slėgis 1024 hPa
Matomumas 10 km arba daugiau

METAR: EBLB 201955Z AUTO 10005KT 9999 NCD 07/02 Q1024 BLU

Laikas: 22:19 (20:19 UTC)


TAF: trūkstamas

Orai ataskaitas ir orų prognozės (METAR, TAF).

turimą stotys yra geltonos ir raudonos taškus žemėlapyje.

Perkelti pele per norėdami pamatyti stoties vardą.

Tada spustelėkite, norėdami matyti oro stebėjimo ir prognozės.

Norėdami pakeisti žemėlapį: spustelėkite ant žalios mygtukų su juodo kryžiaus žemyn,; žalią mygtuką su brūkšneliu, jei norite nutolinti; arba žalių rodyklių gretimoms žemėlapius.


METAR-TAF: